Terminal Aerodrome Forecast
Issued by NWS

Home | Current Version | Previous Version | Text Only | Print | Product List | Glossary Off
Versions: 1 2 3 4 5 6 7 8 9 10 11 12 13 14 15 16 17 18

000
FTUS43 KTOP 142337
TAFFOE
TAF
KFOE 142337Z 1500/1524 16009KT 3SM -DZ OVC004
     FM150200 18008KT 2SM -DZ BR OVC002
     FM150400 19007KT 4SM -SHRA BR SCT004 OVC008
     FM150800 24007KT 5SM BR VCSH OVC008
     FM151300 32013KT P6SM BKN015
     FM151500 34013G22KT P6SM SCT100
     FM152200 34005KT P6SM SKC=

USA.gov is the U.S. government's official web portal to all federal, state and local government web resources and services.